createdAt,value
2022-09-21T00:01:06.114Z,99.90
2022-09-21T00:03:34.106Z,99.90
2022-09-21T00:06:05.993Z,99.90
2022-09-21T00:08:35.537Z,99.90
2022-09-21T00:11:05.481Z,99.90
2022-09-21T00:13:34.623Z,99.90
2022-09-21T00:16:05.566Z,99.90
2022-09-21T00:18:33.936Z,99.90
2022-09-21T00:21:02.547Z,99.90
2022-09-21T00:23:30.557Z,99.90
2022-09-21T00:26:07.957Z,99.90
2022-09-21T00:28:36.030Z,99.90
2022-09-21T00:31:06.230Z,99.90
2022-09-21T00:33:34.378Z,99.90
2022-09-21T00:36:07.221Z,99.90
2022-09-21T00:38:36.937Z,99.90
2022-09-21T00:41:07.570Z,99.90
2022-09-21T00:43:38.918Z,99.90
2022-09-21T00:46:13.049Z,99.90
2022-09-21T00:48:42.340Z,99.90
2022-09-21T00:51:10.610Z,99.90
2022-09-21T00:53:39.803Z,99.90
2022-09-21T00:56:11.632Z,99.90
2022-09-21T00:58:44.679Z,99.90
2022-09-21T01:01:16.206Z,99.90
2022-09-21T01:03:45.742Z,99.90
2022-09-21T01:06:14.123Z,99.90
2022-09-21T01:08:43.446Z,99.90
2022-09-21T01:11:35.437Z,99.90
2022-09-21T01:14:22.823Z,99.90
2022-09-21T01:17:02.409Z,99.90
2022-09-21T01:19:57.637Z,99.90
2022-09-21T01:22:36.472Z,99.90
2022-09-21T01:25:19.287Z,99.90
2022-09-21T01:28:05.105Z,99.90
2022-09-21T01:30:36.958Z,99.90
2022-09-21T01:33:12.673Z,99.90
2022-09-21T01:35:45.796Z,99.90
2022-09-21T01:38:18.576Z,99.90
2022-09-21T01:40:51.808Z,99.90
2022-09-21T01:43:25.340Z,99.90
2022-09-21T01:45:57.083Z,99.90
2022-09-21T01:48:26.960Z,99.90
2022-09-21T01:50:57.974Z,99.90
2022-09-21T01:53:33.181Z,99.90
2022-09-21T01:56:06.017Z,99.90
2022-09-21T01:58:38.593Z,99.90
2022-09-21T02:01:13.104Z,99.90
2022-09-21T02:03:44.552Z,99.90
2022-09-21T02:06:13.398Z,99.90
2022-09-21T02:08:41.614Z,99.90
2022-09-21T02:11:11.546Z,99.90
2022-09-21T02:13:43.023Z,99.90
2022-09-21T02:16:31.658Z,99.90
2022-09-21T02:19:13.110Z,99.90
2022-09-21T02:21:51.956Z,99.90
2022-09-21T02:24:32.720Z,99.90
2022-09-21T02:27:06.055Z,99.90
2022-09-21T02:29:48.124Z,99.90
2022-09-21T02:32:26.153Z,99.90
2022-09-21T02:35:00.011Z,99.90
2022-09-21T02:37:36.683Z,99.90
2022-09-21T02:40:12.226Z,99.90
2022-09-21T02:42:45.224Z,99.90
2022-09-21T02:45:20.806Z,99.90
2022-09-21T02:47:54.785Z,99.90
2022-09-21T02:50:26.045Z,99.90
2022-09-21T02:52:55.576Z,99.90
2022-09-21T02:55:24.814Z,99.90
2022-09-21T02:57:54.847Z,99.90
2022-09-21T03:00:22.958Z,99.90
2022-09-21T03:02:52.321Z,99.90
2022-09-21T03:05:20.411Z,99.90
2022-09-21T03:07:48.626Z,99.90
2022-09-21T03:10:17.379Z,99.90
2022-09-21T03:12:46.887Z,99.90
2022-09-21T03:15:16.711Z,99.90
2022-09-21T03:17:44.639Z,99.90
2022-09-21T03:20:13.991Z,99.90
2022-09-21T03:22:41.872Z,99.90
2022-09-21T03:25:13.024Z,99.90
2022-09-21T03:27:41.245Z,99.90
2022-09-21T03:30:10.175Z,99.90
2022-09-21T03:32:38.113Z,99.90
2022-09-21T03:35:06.996Z,99.90
2022-09-21T03:37:41.084Z,99.90
2022-09-21T03:40:11.541Z,99.90
2022-09-21T03:42:39.537Z,99.90
2022-09-21T03:45:09.109Z,99.90
2022-09-21T03:47:38.131Z,99.90
2022-09-21T03:50:10.011Z,99.90
2022-09-21T03:52:39.576Z,99.90
2022-09-21T03:55:09.915Z,99.90
2022-09-21T03:57:38.480Z,99.90
2022-09-21T04:00:09.157Z,99.90
2022-09-21T04:02:37.884Z,99.90
2022-09-21T04:05:06.935Z,99.90
2022-09-21T04:07:35.983Z,99.90
2022-09-21T04:10:06.942Z,99.90
2022-09-21T04:12:34.944Z,99.90
2022-09-21T04:15:04.138Z,99.90
2022-09-21T04:17:32.191Z,99.90
2022-09-21T04:20:00.064Z,99.90
2022-09-21T04:22:27.944Z,99.90
2022-09-21T04:24:55.815Z,99.90
2022-09-21T04:27:25.095Z,99.90
2022-09-21T04:29:53.262Z,99.90
2022-09-21T04:32:21.220Z,99.90
2022-09-21T04:34:49.116Z,99.90
2022-09-21T04:37:17.238Z,99.90
2022-09-21T04:39:45.201Z,99.90
2022-09-21T04:42:13.162Z,99.90
2022-09-21T04:44:42.625Z,99.90
2022-09-21T04:47:10.540Z,99.90
2022-09-21T04:49:38.549Z,99.90
2022-09-21T04:52:06.857Z,99.90
2022-09-21T04:54:34.747Z,99.90
2022-09-21T04:57:02.780Z,99.90
2022-09-21T04:59:30.672Z,99.90
2022-09-21T05:01:59.935Z,99.90
2022-09-21T05:04:27.875Z,99.90
2022-09-21T05:06:57.328Z,99.90
2022-09-21T05:09:42.692Z,99.90
2022-09-21T05:12:10.771Z,99.90
2022-09-21T05:14:38.632Z,99.90
2022-09-21T05:17:07.857Z,99.90
2022-09-21T05:19:35.816Z,99.90
2022-09-21T05:22:03.724Z,99.90
2022-09-21T05:24:31.557Z,99.90
2022-09-21T05:26:59.530Z,99.90
2022-09-21T05:29:28.068Z,99.90
2022-09-21T05:32:02.172Z,99.90
2022-09-21T05:34:43.285Z,99.90
2022-09-21T05:37:21.698Z,99.90
2022-09-21T05:39:50.146Z,99.90
2022-09-21T05:42:18.610Z,99.90
2022-09-21T05:44:49.267Z,99.90
2022-09-21T05:47:25.082Z,99.90
2022-09-21T05:50:03.434Z,99.90
2022-09-21T05:52:42.455Z,99.90
2022-09-21T05:55:25.493Z,99.90
2022-09-21T05:58:01.264Z,99.90
2022-09-21T06:00:40.600Z,99.90
2022-09-21T06:03:30.076Z,99.90
2022-09-21T06:06:00.115Z,99.90
2022-09-21T06:08:28.312Z,99.90
2022-09-21T06:10:56.703Z,99.90
2022-09-21T06:13:24.608Z,99.90
2022-09-21T06:15:52.518Z,99.90
2022-09-21T06:18:20.684Z,99.90
2022-09-21T06:20:48.902Z,99.90
2022-09-21T06:23:18.268Z,99.90
2022-09-21T06:25:46.161Z,99.90
2022-09-21T06:28:14.454Z,99.90
2022-09-21T06:30:44.898Z,99.90
2022-09-21T06:33:12.976Z,99.90
2022-09-21T06:35:41.313Z,99.90
2022-09-21T06:38:09.613Z,99.90
2022-09-21T06:40:38.982Z,99.90
2022-09-21T06:43:07.476Z,99.90
2022-09-21T06:45:35.463Z,99.90
2022-09-21T06:48:03.625Z,99.90
2022-09-21T06:50:31.529Z,99.90
2022-09-21T06:53:00.960Z,99.90
2022-09-21T06:55:29.350Z,99.90
2022-09-21T06:58:03.018Z,99.90
2022-09-21T07:00:31.736Z,99.90
2022-09-21T07:03:00.161Z,99.90
2022-09-21T07:05:28.347Z,99.90
2022-09-21T07:07:59.154Z,99.90
2022-09-21T07:10:27.544Z,99.90
2022-09-21T07:12:55.494Z,99.90
2022-09-21T07:15:29.006Z,99.90
2022-09-21T07:18:05.153Z,99.90
2022-09-21T07:20:33.776Z,99.90
2022-09-21T07:23:01.764Z,99.90
2022-09-21T07:25:29.706Z,99.90
2022-09-21T07:27:57.605Z,99.90
2022-09-21T07:30:27.769Z,99.90
2022-09-21T07:32:55.707Z,99.90
2022-09-21T07:35:23.587Z,99.90
2022-09-21T07:37:51.511Z,99.90
2022-09-21T07:40:23.064Z,99.90
2022-09-21T07:42:52.987Z,99.90
2022-09-21T07:45:20.875Z,99.90
2022-09-21T07:47:50.156Z,99.90
2022-09-21T07:50:18.168Z,99.90
2022-09-21T07:52:46.038Z,99.90
2022-09-21T07:55:13.953Z,99.90
2022-09-21T07:57:59.673Z,99.90
2022-09-21T08:00:29.168Z,99.90
2022-09-21T08:02:58.401Z,99.90
2022-09-21T08:05:26.266Z,99.90
2022-09-21T08:07:56.777Z,99.90
2022-09-21T08:10:29.298Z,99.90
2022-09-21T08:12:57.849Z,99.90
2022-09-21T08:15:47.721Z,99.90
2022-09-21T08:18:15.059Z,99.90
2022-09-21T08:20:43.915Z,99.90
2022-09-21T08:23:13.011Z,99.90
2022-09-21T08:25:41.115Z,99.90
2022-09-21T08:28:10.117Z,99.90
2022-09-21T08:30:38.177Z,99.90
2022-09-21T08:33:06.982Z,99.90
2022-09-21T08:35:36.987Z,99.90
2022-09-21T08:38:05.020Z,99.90
2022-09-21T08:40:34.207Z,99.90
2022-09-21T08:43:08.507Z,99.90
2022-09-21T08:45:41.963Z,99.90
2022-09-21T08:48:16.324Z,99.90
2022-09-21T08:50:49.420Z,99.90
2022-09-21T08:53:20.553Z,99.90
2022-09-21T08:55:48.509Z,99.90
2022-09-21T08:58:23.480Z,99.90
2022-09-21T09:01:06.863Z,99.90
2022-09-21T09:03:54.752Z,99.90
2022-09-21T09:06:33.265Z,99.90
2022-09-21T09:09:30.559Z,99.90
2022-09-21T09:12:15.489Z,99.90
2022-09-21T09:15:00.069Z,99.90
2022-09-21T09:17:39.601Z,99.90
2022-09-21T09:20:13.855Z,99.90
2022-09-21T09:22:46.815Z,99.90
2022-09-21T09:25:20.683Z,99.90
2022-09-21T09:27:51.535Z,99.90
2022-09-21T09:30:21.701Z,99.90
2022-09-21T09:32:57.478Z,99.90
2022-09-21T09:35:31.309Z,93.80
2022-09-21T09:38:07.251Z,75.70
2022-09-21T09:40:53.004Z,49.50
2022-09-21T09:43:31.328Z,38.80
2022-09-21T09:46:10.874Z,31.50
2022-09-21T09:49:05.159Z,27.70
2022-09-21T09:51:39.849Z,22.90
2022-09-21T09:54:15.408Z,19.00
2022-09-21T09:56:43.921Z,18.10
2022-09-21T09:59:19.512Z,16.70
2022-09-21T10:01:59.383Z,14.80
2022-09-21T10:04:27.968Z,12.80
2022-09-21T10:06:56.032Z,11.90
2022-09-21T10:09:30.123Z,12.20
2022-09-21T10:12:01.680Z,12.30
2022-09-21T10:14:35.189Z,12.00
2022-09-21T10:17:08.205Z,11.30
2022-09-21T10:19:38.077Z,11.10
2022-09-21T10:22:06.713Z,10.80
2022-09-21T10:24:40.659Z,10.70
2022-09-21T10:27:14.456Z,10.40
2022-09-21T10:29:44.259Z,9.10
2022-09-21T10:32:26.471Z,8.30
2022-09-21T10:35:18.122Z,9.00
2022-09-21T10:37:48.444Z,9.50
2022-09-21T10:40:30.765Z,9.10
2022-09-21T10:43:01.279Z,8.80
2022-09-21T10:45:30.939Z,9.40
2022-09-21T10:48:00.355Z,9.30
2022-09-21T10:50:31.024Z,9.80
2022-09-21T10:53:11.463Z,9.20
2022-09-21T10:55:52.673Z,8.50
2022-09-21T10:58:31.758Z,8.50
2022-09-21T11:01:13.764Z,9.10
2022-09-21T11:03:52.378Z,9.10
2022-09-21T11:06:30.601Z,9.20
2022-09-21T11:09:03.631Z,9.90
2022-09-21T11:11:44.894Z,10.50
2022-09-21T11:14:22.097Z,10.70
2022-09-21T11:16:56.821Z,9.80
2022-09-21T11:19:34.568Z,9.50
2022-09-21T11:22:09.257Z,9.40
2022-09-21T11:24:44.732Z,9.20
2022-09-21T11:27:19.453Z,9.20
2022-09-21T11:29:56.402Z,10.10
2022-09-21T11:32:50.134Z,11.20
2022-09-21T11:35:34.016Z,12.40
2022-09-21T11:38:13.680Z,14.00
2022-09-21T11:41:07.988Z,15.30
2022-09-21T11:44:03.530Z,17.10
2022-09-21T11:46:38.305Z,18.30
2022-09-21T11:49:29.049Z,19.60
2022-09-21T11:52:21.581Z,20.40
2022-09-21T11:55:01.705Z,21.10
2022-09-21T11:57:34.906Z,22.70
2022-09-21T12:00:15.221Z,23.70
2022-09-21T12:03:13.642Z,24.70
2022-09-21T12:05:49.071Z,25.20
2022-09-21T12:08:45.650Z,25.60
2022-09-21T12:11:20.396Z,26.00
2022-09-21T12:13:53.664Z,26.40
2022-09-21T12:16:30.981Z,26.80
2022-09-21T12:19:05.350Z,27.00
2022-09-21T12:21:37.589Z,27.20
2022-09-21T12:24:13.284Z,27.70
2022-09-21T12:26:44.550Z,28.30
2022-09-21T12:29:18.435Z,28.40
2022-09-21T12:31:58.974Z,29.20
2022-09-21T12:34:31.184Z,28.90
2022-09-21T12:37:07.774Z,28.80
2022-09-21T12:39:42.492Z,28.50
2022-09-21T12:42:23.908Z,27.90
2022-09-21T12:44:56.875Z,28.00
2022-09-21T12:47:36.300Z,28.30
2022-09-21T12:50:14.891Z,28.00
2022-09-21T12:52:43.516Z,27.90
2022-09-21T12:55:31.263Z,28.40
2022-09-21T12:58:15.089Z,27.90
2022-09-21T13:00:55.486Z,28.00
2022-09-21T13:03:31.819Z,27.60
2022-09-21T13:06:30.216Z,27.00
2022-09-21T13:09:04.197Z,26.50
2022-09-21T13:11:35.741Z,26.00
2022-09-21T13:14:05.669Z,25.30
2022-09-21T13:16:35.572Z,24.90
2022-09-21T13:19:06.883Z,24.90
2022-09-21T13:21:35.110Z,24.60
2022-09-21T13:24:04.737Z,24.20
2022-09-21T13:26:37.234Z,24.10
2022-09-21T13:29:31.456Z,23.80
2022-09-21T13:32:00.967Z,23.40
2022-09-21T13:34:35.558Z,23.00
2022-09-21T13:37:33.982Z,22.60
2022-09-21T13:40:38.662Z,22.70
2022-09-21T13:43:22.475Z,22.70
2022-09-21T13:45:55.454Z,22.50
2022-09-21T13:48:29.582Z,22.00
2022-09-21T13:51:01.880Z,21.80
2022-09-21T13:53:38.425Z,21.80
2022-09-21T13:56:17.557Z,22.30
2022-09-21T13:58:47.895Z,22.00
2022-09-21T14:01:45.350Z,21.60
2022-09-21T14:04:19.431Z,20.80
2022-09-21T14:06:50.862Z,20.70
2022-09-21T14:09:25.645Z,20.70
2022-09-21T14:11:59.754Z,20.50
2022-09-21T14:14:32.721Z,20.10
2022-09-21T14:17:02.103Z,19.70
2022-09-21T14:20:04.951Z,18.90
2022-09-21T14:22:43.583Z,19.10
2022-09-21T14:25:47.752Z,18.60
2022-09-21T14:28:18.359Z,19.30
2022-09-21T14:30:55.260Z,18.60
2022-09-21T14:33:35.766Z,18.00
2022-09-21T14:36:09.785Z,17.60
2022-09-21T14:38:51.609Z,17.60
2022-09-21T14:41:23.963Z,17.80
2022-09-21T14:43:55.585Z,17.70
2022-09-21T14:46:42.805Z,17.40
2022-09-21T14:49:24.907Z,18.10
2022-09-21T14:52:12.329Z,18.00
2022-09-21T14:54:52.537Z,18.40
2022-09-21T14:57:37.221Z,19.70
2022-09-21T15:00:21.088Z,21.70
2022-09-21T15:02:56.382Z,22.60
2022-09-21T15:05:32.539Z,23.20
2022-09-21T15:08:41.269Z,23.70
2022-09-21T15:11:18.810Z,23.70
2022-09-21T15:13:56.174Z,24.00
2022-09-21T15:16:35.852Z,24.20
2022-09-21T15:19:13.942Z,24.70
2022-09-21T15:21:44.434Z,25.20
2022-09-21T15:24:23.173Z,25.90
2022-09-21T15:26:54.788Z,26.40
2022-09-21T15:29:27.111Z,26.90
2022-09-21T15:31:55.964Z,27.40
2022-09-21T15:34:24.499Z,27.50
2022-09-21T15:36:52.951Z,27.60
2022-09-21T15:39:26.359Z,27.80
2022-09-21T15:42:19.980Z,27.70
2022-09-21T15:44:50.695Z,27.80
2022-09-21T15:47:22.142Z,28.00
2022-09-21T15:49:51.707Z,28.20
2022-09-21T15:52:25.795Z,28.60
2022-09-21T15:54:58.349Z,28.70
2022-09-21T15:57:39.252Z,28.90
2022-09-21T16:00:20.676Z,29.00
2022-09-21T16:03:05.277Z,29.20
2022-09-21T16:05:45.582Z,29.40
2022-09-21T16:08:30.212Z,29.70
2022-09-21T16:11:16.772Z,30.00
2022-09-21T16:14:04.917Z,30.60
2022-09-21T16:16:32.934Z,31.10
2022-09-21T16:19:01.046Z,31.50
2022-09-21T16:21:33.923Z,31.80
2022-09-21T16:24:12.513Z,32.10
2022-09-21T16:26:42.183Z,32.10
2022-09-21T16:29:25.455Z,32.40
2022-09-21T16:32:26.296Z,32.50
2022-09-21T16:34:55.060Z,32.60
2022-09-21T16:37:28.115Z,32.90
2022-09-21T16:39:57.985Z,33.10
2022-09-21T16:42:33.102Z,33.10
2022-09-21T16:45:04.095Z,33.20
2022-09-21T16:47:32.273Z,33.40
2022-09-21T16:50:01.973Z,33.50
2022-09-21T16:52:31.402Z,33.70
2022-09-21T16:54:59.441Z,33.70
2022-09-21T16:57:27.787Z,33.90
2022-09-21T16:59:56.085Z,34.10
2022-09-21T17:02:25.808Z,34.40
2022-09-21T17:04:53.771Z,35.10
2022-09-21T17:07:21.670Z,36.10
2022-09-21T17:09:50.594Z,36.90
2022-09-21T17:12:19.310Z,37.60
2022-09-21T17:14:47.696Z,38.40
2022-09-21T17:17:19.289Z,39.20
2022-09-21T17:19:50.187Z,40.20
2022-09-21T17:22:18.487Z,40.90
2022-09-21T17:24:50.711Z,41.60
2022-09-21T17:27:21.254Z,42.40
2022-09-21T17:29:50.295Z,43.40
2022-09-21T17:32:20.774Z,44.40
2022-09-21T17:34:56.198Z,45.50
2022-09-21T17:37:24.105Z,46.70
2022-09-21T17:39:53.570Z,48.20
2022-09-21T17:42:25.542Z,50.40
2022-09-21T17:45:12.338Z,52.90
2022-09-21T17:47:41.763Z,55.80
2022-09-21T17:50:20.097Z,59.00
2022-09-21T17:53:06.172Z,62.10
2022-09-21T17:55:34.684Z,65.70
2022-09-21T17:58:16.448Z,68.60
2022-09-21T18:00:52.642Z,71.70
2022-09-21T18:03:24.470Z,74.50
2022-09-21T18:05:57.095Z,76.80
2022-09-21T18:08:26.866Z,79.10
2022-09-21T18:11:04.326Z,81.30
2022-09-21T18:13:41.587Z,83.60
2022-09-21T18:16:33.567Z,85.30
2022-09-21T18:19:24.259Z,87.00
2022-09-21T18:22:01.088Z,88.90
2022-09-21T18:24:31.731Z,90.30
2022-09-21T18:27:00.754Z,91.20
2022-09-21T18:29:40.847Z,92.00
2022-09-21T18:32:25.841Z,93.00
2022-09-21T18:35:23.614Z,94.10
2022-09-21T18:38:04.461Z,95.10
2022-09-21T18:40:39.684Z,96.50
2022-09-21T18:43:20.035Z,98.10
2022-09-21T18:45:53.587Z,99.20
2022-09-21T18:48:31.659Z,99.90
2022-09-21T18:51:07.274Z,99.90
2022-09-21T18:53:45.180Z,99.90
2022-09-21T18:56:13.880Z,99.90
2022-09-21T18:58:42.663Z,99.90
2022-09-21T19:01:13.277Z,99.90
2022-09-21T19:03:43.401Z,99.90
2022-09-21T19:06:23.303Z,99.90
2022-09-21T19:08:59.341Z,99.90
2022-09-21T19:11:34.717Z,99.90
2022-09-21T19:14:16.561Z,99.90
2022-09-21T19:16:55.467Z,99.90
2022-09-21T19:19:32.875Z,99.90
2022-09-21T19:22:06.352Z,99.90
2022-09-21T19:24:42.509Z,99.90
2022-09-21T19:27:29.221Z,99.90
2022-09-21T19:30:05.805Z,99.90
2022-09-21T19:32:37.873Z,99.90
2022-09-21T19:35:22.387Z,99.90
2022-09-21T19:37:51.938Z,99.90
2022-09-21T19:40:23.675Z,99.90
2022-09-21T19:43:21.000Z,99.90
2022-09-21T19:46:04.437Z,99.90
2022-09-21T19:48:44.767Z,99.90
2022-09-21T19:51:20.111Z,99.90
2022-09-21T19:54:12.828Z,99.90
2022-09-21T19:57:04.755Z,99.90
2022-09-21T19:59:45.694Z,99.90
2022-09-21T20:02:18.653Z,99.90
2022-09-21T20:04:51.718Z,99.90
2022-09-21T20:07:28.513Z,99.90
2022-09-21T20:10:08.341Z,99.90
2022-09-21T20:12:43.433Z,99.90
2022-09-21T20:15:16.860Z,99.90
2022-09-21T20:17:51.210Z,99.90
2022-09-21T20:20:22.697Z,99.90
2022-09-21T20:22:51.302Z,99.90
2022-09-21T20:25:25.169Z,99.90
2022-09-21T20:27:56.280Z,99.90
2022-09-21T20:30:26.070Z,99.90
2022-09-21T20:32:56.884Z,99.90
2022-09-21T20:35:26.285Z,99.90
2022-09-21T20:37:58.581Z,99.90
2022-09-21T20:40:31.972Z,99.90
2022-09-21T20:43:01.928Z,99.90
2022-09-21T20:45:30.591Z,99.90
2022-09-21T20:48:12.883Z,99.90
2022-09-21T20:50:41.882Z,99.90
2022-09-21T20:53:10.007Z,99.90
2022-09-21T20:55:38.459Z,99.90
2022-09-21T20:58:09.140Z,99.90
2022-09-21T21:00:37.766Z,99.90
2022-09-21T21:03:06.075Z,99.90
2022-09-21T21:05:34.058Z,99.90
2022-09-21T21:08:04.592Z,99.90
2022-09-21T21:10:32.881Z,99.90
2022-09-21T21:13:01.569Z,99.90
2022-09-21T21:15:33.012Z,99.90
2022-09-21T21:18:01.912Z,99.90
2022-09-21T21:20:30.901Z,99.90
2022-09-21T21:22:58.825Z,99.90
2022-09-21T21:25:27.094Z,99.90
2022-09-21T21:27:57.409Z,99.90
2022-09-21T21:30:25.510Z,99.90
2022-09-21T21:32:54.905Z,99.90
2022-09-21T21:35:23.076Z,99.90
2022-09-21T21:37:50.946Z,99.90
2022-09-21T21:40:20.623Z,99.90
2022-09-21T21:42:48.611Z,99.90
2022-09-21T21:45:18.012Z,99.90
2022-09-21T21:47:45.971Z,99.90
2022-09-21T21:50:15.324Z,99.90
2022-09-21T21:52:45.021Z,99.90
2022-09-21T21:55:13.073Z,99.90
2022-09-21T21:57:41.099Z,99.90
2022-09-21T22:00:10.292Z,99.90
2022-09-21T22:02:38.230Z,99.90
2022-09-21T22:05:06.871Z,99.90
2022-09-21T22:07:36.144Z,99.90
2022-09-21T22:10:04.232Z,99.90
2022-09-21T22:12:32.284Z,99.90
2022-09-21T22:15:00.220Z,99.90
2022-09-21T22:17:28.104Z,99.90
2022-09-21T22:19:56.317Z,99.90
2022-09-21T22:22:24.224Z,99.90
2022-09-21T22:24:53.835Z,99.90
2022-09-21T22:27:22.151Z,99.90
2022-09-21T22:29:50.100Z,99.90
2022-09-21T22:32:18.062Z,99.90
2022-09-21T22:34:46.411Z,99.90
2022-09-21T22:37:14.306Z,99.90
2022-09-21T22:39:42.660Z,99.90
2022-09-21T22:42:13.098Z,99.90
2022-09-21T22:44:41.075Z,99.90
2022-09-21T22:47:08.943Z,99.90
2022-09-21T22:49:36.855Z,99.90
2022-09-21T22:52:04.921Z,99.90
2022-09-21T22:54:33.931Z,99.90
2022-09-21T22:57:01.848Z,99.90
2022-09-21T22:59:31.394Z,99.90
2022-09-21T23:01:59.515Z,99.90
2022-09-21T23:04:27.560Z,99.90
2022-09-21T23:06:55.487Z,99.90
2022-09-21T23:09:23.406Z,99.90
2022-09-21T23:11:53.506Z,99.90
2022-09-21T23:14:22.532Z,99.90
2022-09-21T23:16:51.839Z,99.90
2022-09-21T23:19:19.802Z,99.90
2022-09-21T23:21:50.663Z,99.90
2022-09-21T23:24:19.233Z,99.90
2022-09-21T23:26:48.041Z,99.90
2022-09-21T23:29:17.199Z,99.90
2022-09-21T23:31:46.510Z,99.90
2022-09-21T23:34:16.425Z,99.90
2022-09-21T23:36:45.871Z,99.90
2022-09-21T23:39:15.752Z,99.90
2022-09-21T23:41:43.987Z,99.90
2022-09-21T23:44:11.940Z,99.90
2022-09-21T23:46:41.047Z,99.90
2022-09-21T23:49:09.072Z,99.90
2022-09-21T23:51:38.614Z,99.90
2022-09-21T23:54:07.411Z,99.90
2022-09-21T23:56:35.633Z,99.90
2022-09-21T23:59:03.592Z,99.90
